Terminal Aerodrome Forecast
Issued by NWS Sterling, VA

Home | Current Version | Previous Version | Text Only | Print | Product List | Glossary On
Versions: 1 2 3 4 5 6 7 8 9 10 11 12 13
000
FTUS41 KLWX 302341
TAFCHO
TAF
KCHO 302341Z 3100/3124 16005KT P6SM VCSH SCT040 BKN090
     FM310200 VRB03KT P6SM BKN035 BKN090
     FM310600 00000KT 3SM BR BKN250
     FM310900 00000KT 2SM BR BKN250
     FM311200 VRB03KT 3SM BR BKN060
     FM311400 03004KT P6SM BKN250
     FM312200 09004KT P6SM BKN060=

USA.gov is the U.S. government's official web portal to all federal, state and local government web resources and services.